Airfield :
LOGIN :

Register | Disclaimer

   EN    FR    IT 

 










Legend :    VFR   Marginal VFR   IFR   Intensive IFR   Very Intensive IFR
Visi :
Ceiling :
>= 8 km
>= 3000ft
5 to 8 km
1000 to 3000 ft
1500m to 5 km
500 to 1000 ft
800 to 1500m
200 to 500 ft
< 800m
< 200 ft
Symbols :   Thunderstorms  Fog  Heavy snow  Heavy precipitations  Wind > 20 kt
SIGMETs :     Misc.  Thunderstorms  Icing  Turbulence  Mountain Waves  Volcanic Ashes







- Airport Elevation : 392 ft
- IATA code : CDG
- Download approach charts


LFPG - Paris-Aeroport Charles De Gaulle

CURRENT METAR :
  • 221030Z 19009KT 1000 R27L/1500U R09R/1600U R26R/1500D R08L/1600N R26L/1700D R08R/1300D R27R/1500D R09L/1600N -SN OVC004 M00/M01 Q1007 TEMPO 0800 SN R27R/590350 R27L/590350

EXPIRED METARs :
  • 221000Z 19010KT 1000 R27L/1700N R09R/1600D R26R/1500D R08L/1400N R26L/1800U R08R/1400D R27R/1600U R09L/1500U -SN OVC004 M01/M01 Q1007 TEMPO 0800 SN OVC003 R27R/590350 R27L/590350
  • 220930Z 19012KT 0800 R27L/1200D R09R/1600U R26R/1200U R08L/1400D R26L/1500U R08R/1200D R27R/1300U R09L/1500U -SN OVC004 M01/M02 Q1007 TEMPO 800 SN OVC003
  • 220900Z 18011KT 0800 R27L/1400D R09R/1400D R26R/1300D R08L/1300D R26L/1600N R08R/1200D R27R/1500D R09L/1400N SN FG BKN005 M01/M02 Q1008 TEMPO 800 SN BKN003
  • 220830Z 18011KT 1500 -SN BR BKN005 BKN007 M01/M02 Q1008 TEMPO 800 SN BKN003
  • 220800Z 17012KT 3500 -SN BR BKN008 BKN017 M01/M03 Q1008 TEMPO 0800 SN BKN003

TAF AMD TAF LFPG
Valid from the 22 at 07:00 until the 23 at 12:00 UTC


220744Z 2207/2312 18010KT 3000 -SN BKN007 TX02/2215Z TNM01/2207Z
PROB40
TEMPO 2208/2210 0800 SN BKN003
BECMG 2212/2214 6000 NSW BKN012
BECMG 2216/2218 BKN006
PROB40
TEMPO 2221/2309 1500 -SHSN BKN004 SCT010TCU
ATIS : +33 1 48 62 10 92
No reported NOTAMs for that airfield.



MET'MAP, your aeronautical weather chart ! - Copyright ORBIFLY December 2007 - Disclaimer

ORBIFLY MET'MAP TEAM :

Programming & Development : Alexandra Zaïnal
Concept & Development : Baudouin d'Aumeries
Co-Development & Prog : Marc-Olivier Méhu
Technical & hardware support : Manuel Goepfert

Contact : metmap@orbifly.com




SOURCES & CREDITS :

   NOAA